sensor_id;sensor_type;location;lat;lon;timestamp;P1;durP1;ratioP1;P2;durP2;ratioP2
75021;SDS011;63583;49.976;20.182;2022-10-15T00:00:28;20.33;;;12.45;;
75021;SDS011;63583;49.976;20.182;2022-10-15T00:03:13;20.90;;;12.73;;
75021;SDS011;63583;49.976;20.182;2022-10-15T00:05:39;20.92;;;13.10;;
75021;SDS011;63583;49.976;20.182;2022-10-15T00:08:06;25.15;;;13.90;;
75021;SDS011;63583;49.976;20.182;2022-10-15T00:10:33;21.83;;;11.45;;
75021;SDS011;63583;49.976;20.182;2022-10-15T00:13:00;25.02;;;13.32;;
75021;SDS011;63583;49.976;20.182;2022-10-15T00:15:26;21.85;;;11.93;;
75021;SDS011;63583;49.976;20.182;2022-10-15T00:17:52;23.15;;;12.95;;
75021;SDS011;63583;49.976;20.182;2022-10-15T00:20:18;24.10;;;13.88;;
75021;SDS011;63583;49.976;20.182;2022-10-15T00:22:44;24.83;;;13.02;;
75021;SDS011;63583;49.976;20.182;2022-10-15T00:25:09;27.30;;;14.02;;
75021;SDS011;63583;49.976;20.182;2022-10-15T00:27:36;23.08;;;12.90;;
75021;SDS011;63583;49.976;20.182;2022-10-15T00:30:03;24.27;;;13.23;;
75021;SDS011;63583;49.976;20.182;2022-10-15T00:32:29;21.88;;;11.85;;
75021;SDS011;63583;49.976;20.182;2022-10-15T00:34:55;21.45;;;12.25;;
75021;SDS011;63583;49.976;20.182;2022-10-15T00:37:21;21.83;;;12.90;;
75021;SDS011;63583;49.976;20.182;2022-10-15T00:39:47;24.23;;;14.13;;
75021;SDS011;63583;49.976;20.182;2022-10-15T00:42:13;23.00;;;12.35;;
75021;SDS011;63583;49.976;20.182;2022-10-15T00:44:47;23.33;;;12.70;;
75021;SDS011;63583;49.976;20.182;2022-10-15T00:52:53;22.88;;;12.35;;
75021;SDS011;63583;49.976;20.182;2022-10-15T00:55:30;21.17;;;12.57;;
75021;SDS011;63583;49.976;20.182;2022-10-15T01:00:34;22.30;;;11.95;;
75021;SDS011;63583;49.976;20.182;2022-10-15T01:03:00;18.48;;;10.65;;
75021;SDS011;63583;49.976;20.182;2022-10-15T01:05:26;21.35;;;11.20;;
75021;SDS011;63583;49.976;20.182;2022-10-15T01:07:53;18.35;;;10.85;;
75021;SDS011;63583;49.976;20.182;2022-10-15T01:10:18;22.08;;;11.60;;
75021;SDS011;63583;49.976;20.182;2022-10-15T01:13:47;20.15;;;11.18;;
75021;SDS011;63583;49.976;20.182;2022-10-15T01:16:10;18.52;;;11.13;;
75021;SDS011;63583;49.976;20.182;2022-10-15T01:18:53;18.33;;;10.45;;
75021;SDS011;63583;49.976;20.182;2022-10-15T01:21:39;18.88;;;11.13;;
75021;SDS011;63583;49.976;20.182;2022-10-15T01:32:47;19.67;;;10.73;;
75021;SDS011;63583;49.976;20.182;2022-10-15T01:40:37;19.73;;;10.70;;
75021;SDS011;63583;49.976;20.182;2022-10-15T01:43:11;21.25;;;10.77;;
75021;SDS011;63583;49.976;20.182;2022-10-15T01:45:42;20.42;;;11.35;;
75021;SDS011;63583;49.976;20.182;2022-10-15T01:48:12;19.92;;;10.38;;
75021;SDS011;63583;49.976;20.182;2022-10-15T01:50:39;18.20;;;10.65;;
75021;SDS011;63583;49.976;20.182;2022-10-15T01:53:10;18.60;;;10.95;;
75021;SDS011;63583;49.976;20.182;2022-10-15T01:55:40;19.67;;;10.63;;
75021;SDS011;63583;49.976;20.182;2022-10-15T02:00:35;19.38;;;9.88;;
75021;SDS011;63583;49.976;20.182;2022-10-15T02:03:01;18.73;;;10.50;;
75021;SDS011;63583;49.976;20.182;2022-10-15T02:05:29;18.05;;;10.35;;
75021;SDS011;63583;49.976;20.182;2022-10-15T02:11:05;18.25;;;9.90;;
75021;SDS011;63583;49.976;20.182;2022-10-15T02:19:18;20.10;;;10.82;;
75021;SDS011;63583;49.976;20.182;2022-10-15T02:22:08;19.33;;;10.82;;
75021;SDS011;63583;49.976;20.182;2022-10-15T02:25:04;18.40;;;10.68;;
75021;SDS011;63583;49.976;20.182;2022-10-15T02:27:34;19.27;;;10.98;;
75021;SDS011;63583;49.976;20.182;2022-10-15T02:30:02;18.88;;;11.18;;
75021;SDS011;63583;49.976;20.182;2022-10-15T02:32:31;19.52;;;10.95;;
75021;SDS011;63583;49.976;20.182;2022-10-15T02:34:58;17.30;;;10.20;;
75021;SDS011;63583;49.976;20.182;2022-10-15T02:37:25;19.77;;;11.07;;
75021;SDS011;63583;49.976;20.182;2022-10-15T02:39:53;18.55;;;10.13;;
75021;SDS011;63583;49.976;20.182;2022-10-15T02:42:19;19.27;;;12.18;;
75021;SDS011;63583;49.976;20.182;2022-10-15T02:44:45;19.90;;;11.57;;
75021;SDS011;63583;49.976;20.182;2022-10-15T02:47:11;20.17;;;11.32;;
75021;SDS011;63583;49.976;20.182;2022-10-15T02:49:37;20.15;;;11.73;;
75021;SDS011;63583;49.976;20.182;2022-10-15T02:52:03;21.17;;;12.80;;
75021;SDS011;63583;49.976;20.182;2022-10-15T02:54:29;23.67;;;13.10;;
75021;SDS011;63583;49.976;20.182;2022-10-15T02:56:54;22.05;;;12.93;;
75021;SDS011;63583;49.976;20.182;2022-10-15T02:59:20;21.85;;;12.80;;
75021;SDS011;63583;49.976;20.182;2022-10-15T03:01:46;21.88;;;11.93;;
75021;SDS011;63583;49.976;20.182;2022-10-15T03:04:12;19.02;;;10.80;;
75021;SDS011;63583;49.976;20.182;2022-10-15T03:06:38;23.70;;;13.48;;
75021;SDS011;63583;49.976;20.182;2022-10-15T03:09:04;22.42;;;12.50;;
75021;SDS011;63583;49.976;20.182;2022-10-15T03:11:29;19.73;;;11.00;;
75021;SDS011;63583;49.976;20.182;2022-10-15T03:13:55;22.77;;;12.85;;
75021;SDS011;63583;49.976;20.182;2022-10-15T03:16:21;22.08;;;12.13;;
75021;SDS011;63583;49.976;20.182;2022-10-15T03:18:47;22.65;;;12.85;;
75021;SDS011;63583;49.976;20.182;2022-10-15T03:21:13;22.25;;;13.15;;
75021;SDS011;63583;49.976;20.182;2022-10-15T03:23:39;20.30;;;12.13;;
75021;SDS011;63583;49.976;20.182;2022-10-15T03:26:05;22.80;;;12.18;;
75021;SDS011;63583;49.976;20.182;2022-10-15T03:28:31;21.58;;;11.27;;
75021;SDS011;63583;49.976;20.182;2022-10-15T03:30:56;21.30;;;13.15;;
75021;SDS011;63583;49.976;20.182;2022-10-15T03:33:22;20.38;;;12.02;;
75021;SDS011;63583;49.976;20.182;2022-10-15T03:35:48;21.90;;;11.38;;
75021;SDS011;63583;49.976;20.182;2022-10-15T03:38:14;19.50;;;11.35;;
75021;SDS011;63583;49.976;20.182;2022-10-15T03:40:39;18.85;;;11.45;;
75021;SDS011;63583;49.976;20.182;2022-10-15T03:43:05;22.17;;;11.93;;
75021;SDS011;63583;49.976;20.182;2022-10-15T03:45:31;21.27;;;11.65;;
75021;SDS011;63583;49.976;20.182;2022-10-15T03:47:57;18.73;;;11.88;;
75021;SDS011;63583;49.976;20.182;2022-10-15T03:50:23;18.50;;;11.50;;
75021;SDS011;63583;49.976;20.182;2022-10-15T03:52:48;21.15;;;11.20;;
75021;SDS011;63583;49.976;20.182;2022-10-15T03:55:14;22.75;;;12.35;;
75021;SDS011;63583;49.976;20.182;2022-10-15T03:57:40;20.38;;;10.88;;
75021;SDS011;63583;49.976;20.182;2022-10-15T04:00:06;22.13;;;12.57;;
75021;SDS011;63583;49.976;20.182;2022-10-15T04:02:34;21.65;;;11.48;;
75021;SDS011;63583;49.976;20.182;2022-10-15T04:05:00;20.10;;;10.70;;
75021;SDS011;63583;49.976;20.182;2022-10-15T04:07:25;18.67;;;11.23;;
75021;SDS011;63583;49.976;20.182;2022-10-15T04:09:51;17.88;;;11.00;;
75021;SDS011;63583;49.976;20.182;2022-10-15T04:12:17;20.95;;;12.07;;
75021;SDS011;63583;49.976;20.182;2022-10-15T04:14:43;21.08;;;11.82;;
75021;SDS011;63583;49.976;20.182;2022-10-15T04:17:08;21.85;;;11.77;;
75021;SDS011;63583;49.976;20.182;2022-10-15T04:19:34;17.83;;;10.25;;
75021;SDS011;63583;49.976;20.182;2022-10-15T04:22:01;23.60;;;11.10;;
75021;SDS011;63583;49.976;20.182;2022-10-15T04:24:27;20.75;;;11.85;;
75021;SDS011;63583;49.976;20.182;2022-10-15T04:26:52;17.80;;;10.77;;
75021;SDS011;63583;49.976;20.182;2022-10-15T04:29:18;17.55;;;10.50;;
75021;SDS011;63583;49.976;20.182;2022-10-15T04:31:45;20.00;;;10.82;;
75021;SDS011;63583;49.976;20.182;2022-10-15T04:34:10;23.15;;;12.52;;
75021;SDS011;63583;49.976;20.182;2022-10-15T04:36:36;18.60;;;11.68;;
75021;SDS011;63583;49.976;20.182;2022-10-15T04:39:02;20.25;;;11.60;;
75021;SDS011;63583;49.976;20.182;2022-10-15T04:41:29;20.05;;;11.02;;
75021;SDS011;63583;49.976;20.182;2022-10-15T04:43:55;20.52;;;11.38;;
75021;SDS011;63583;49.976;20.182;2022-10-15T04:46:21;21.80;;;11.68;;
75021;SDS011;63583;49.976;20.182;2022-10-15T04:48:47;21.20;;;11.38;;
75021;SDS011;63583;49.976;20.182;2022-10-15T04:51:14;19.92;;;10.63;;
75021;SDS011;63583;49.976;20.182;2022-10-15T04:53:41;19.58;;;10.60;;
75021;SDS011;63583;49.976;20.182;2022-10-15T04:56:12;20.17;;;11.45;;
75021;SDS011;63583;49.976;20.182;2022-10-15T04:58:40;22.08;;;11.88;;
75021;SDS011;63583;49.976;20.182;2022-10-15T05:01:09;18.35;;;11.25;;
75021;SDS011;63583;49.976;20.182;2022-10-15T05:04:02;21.42;;;11.73;;
75021;SDS011;63583;49.976;20.182;2022-10-15T05:06:27;22.63;;;12.02;;
75021;SDS011;63583;49.976;20.182;2022-10-15T05:08:53;19.05;;;12.10;;
75021;SDS011;63583;49.976;20.182;2022-10-15T05:11:20;22.13;;;10.82;;
75021;SDS011;63583;49.976;20.182;2022-10-15T05:13:48;19.55;;;11.00;;
75021;SDS011;63583;49.976;20.182;2022-10-15T05:16:21;21.80;;;10.82;;
75021;SDS011;63583;49.976;20.182;2022-10-15T05:18:50;21.20;;;11.88;;
75021;SDS011;63583;49.976;20.182;2022-10-15T05:21:17;20.10;;;11.45;;
75021;SDS011;63583;49.976;20.182;2022-10-15T05:23:43;24.02;;;12.52;;
75021;SDS011;63583;49.976;20.182;2022-10-15T05:26:11;21.25;;;11.80;;
75021;SDS011;63583;49.976;20.182;2022-10-15T05:28:40;24.55;;;12.60;;
75021;SDS011;63583;49.976;20.182;2022-10-15T05:31:10;22.02;;;11.95;;
75021;SDS011;63583;49.976;20.182;2022-10-15T05:33:37;19.88;;;10.73;;
75021;SDS011;63583;49.976;20.182;2022-10-15T05:36:13;20.00;;;11.88;;
75021;SDS011;63583;49.976;20.182;2022-10-15T05:38:44;21.63;;;11.52;;
75021;SDS011;63583;49.976;20.182;2022-10-15T05:41:10;21.02;;;12.32;;
75021;SDS011;63583;49.976;20.182;2022-10-15T05:43:36;20.60;;;11.75;;
75021;SDS011;63583;49.976;20.182;2022-10-15T05:46:02;23.20;;;11.68;;
75021;SDS011;63583;49.976;20.182;2022-10-15T05:48:28;21.85;;;11.25;;
75021;SDS011;63583;49.976;20.182;2022-10-15T05:50:59;21.65;;;11.57;;
75021;SDS011;63583;49.976;20.182;2022-10-15T05:53:27;20.50;;;11.43;;
75021;SDS011;63583;49.976;20.182;2022-10-15T05:55:53;20.45;;;11.40;;
75021;SDS011;63583;49.976;20.182;2022-10-15T05:58:18;20.45;;;11.23;;
75021;SDS011;63583;49.976;20.182;2022-10-15T06:00:44;20.17;;;10.82;;
75021;SDS011;63583;49.976;20.182;2022-10-15T06:03:11;21.80;;;10.70;;
75021;SDS011;63583;49.976;20.182;2022-10-15T06:05:38;20.27;;;11.02;;
75021;SDS011;63583;49.976;20.182;2022-10-15T06:08:04;17.77;;;10.05;;
75021;SDS011;63583;49.976;20.182;2022-10-15T06:10:30;21.02;;;11.57;;
75021;SDS011;63583;49.976;20.182;2022-10-15T06:12:59;20.20;;;11.27;;
75021;SDS011;63583;49.976;20.182;2022-10-15T06:15:25;19.27;;;11.43;;
75021;SDS011;63583;49.976;20.182;2022-10-15T06:17:53;17.77;;;10.05;;
75021;SDS011;63583;49.976;20.182;2022-10-15T06:20:19;19.77;;;10.70;;
75021;SDS011;63583;49.976;20.182;2022-10-15T06:22:45;17.42;;;10.77;;
75021;SDS011;63583;49.976;20.182;2022-10-15T06:25:10;19.08;;;11.20;;
75021;SDS011;63583;49.976;20.182;2022-10-15T06:27:36;16.20;;;10.15;;
75021;SDS011;63583;49.976;20.182;2022-10-15T06:30:02;18.38;;;10.40;;
75021;SDS011;63583;49.976;20.182;2022-10-15T06:32:28;18.77;;;10.63;;
75021;SDS011;63583;49.976;20.182;2022-10-15T06:34:54;17.50;;;10.52;;
75021;SDS011;63583;49.976;20.182;2022-10-15T06:37:19;19.00;;;10.73;;
75021;SDS011;63583;49.976;20.182;2022-10-15T06:39:45;19.45;;;10.75;;
75021;SDS011;63583;49.976;20.182;2022-10-15T06:42:11;18.63;;;10.65;;
75021;SDS011;63583;49.976;20.182;2022-10-15T06:44:37;16.80;;;10.55;;
75021;SDS011;63583;49.976;20.182;2022-10-15T06:47:03;21.30;;;13.38;;
75021;SDS011;63583;49.976;20.182;2022-10-15T06:49:29;15.98;;;9.88;;
75021;SDS011;63583;49.976;20.182;2022-10-15T06:51:55;19.60;;;11.02;;
75021;SDS011;63583;49.976;20.182;2022-10-15T06:54:22;18.27;;;10.70;;
75021;SDS011;63583;49.976;20.182;2022-10-15T06:56:47;20.20;;;11.63;;
75021;SDS011;63583;49.976;20.182;2022-10-15T06:59:14;20.73;;;10.32;;
75021;SDS011;63583;49.976;20.182;2022-10-15T07:01:39;16.23;;;10.32;;
75021;SDS011;63583;49.976;20.182;2022-10-15T07:04:06;22.88;;;11.98;;
75021;SDS011;63583;49.976;20.182;2022-10-15T07:06:35;16.52;;;11.10;;
75021;SDS011;63583;49.976;20.182;2022-10-15T07:09:01;20.48;;;10.98;;
75021;SDS011;63583;49.976;20.182;2022-10-15T07:11:27;17.58;;;10.68;;
75021;SDS011;63583;49.976;20.182;2022-10-15T07:13:53;21.65;;;12.38;;
75021;SDS011;63583;49.976;20.182;2022-10-15T07:16:21;21.13;;;11.48;;
75021;SDS011;63583;49.976;20.182;2022-10-15T07:18:47;19.88;;;11.45;;
75021;SDS011;63583;49.976;20.182;2022-10-15T07:21:13;17.10;;;11.15;;
75021;SDS011;63583;49.976;20.182;2022-10-15T07:23:38;17.20;;;10.30;;
75021;SDS011;63583;49.976;20.182;2022-10-15T07:26:04;19.98;;;11.38;;
75021;SDS011;63583;49.976;20.182;2022-10-15T07:28:30;19.02;;;11.85;;
75021;SDS011;63583;49.976;20.182;2022-10-15T07:31:00;19.92;;;11.15;;
75021;SDS011;63583;49.976;20.182;2022-10-15T07:33:26;18.27;;;11.10;;
75021;SDS011;63583;49.976;20.182;2022-10-15T07:35:52;18.95;;;11.75;;
75021;SDS011;63583;49.976;20.182;2022-10-15T07:38:18;21.13;;;11.35;;
75021;SDS011;63583;49.976;20.182;2022-10-15T07:40:43;18.55;;;11.30;;
75021;SDS011;63583;49.976;20.182;2022-10-15T07:43:09;24.60;;;11.68;;
75021;SDS011;63583;49.976;20.182;2022-10-15T07:45:35;21.50;;;12.65;;
75021;SDS011;63583;49.976;20.182;2022-10-15T07:48:01;21.30;;;11.98;;
75021;SDS011;63583;49.976;20.182;2022-10-15T07:50:27;21.40;;;11.68;;
75021;SDS011;63583;49.976;20.182;2022-10-15T07:52:53;20.85;;;12.55;;
75021;SDS011;63583;49.976;20.182;2022-10-15T07:55:18;19.23;;;12.50;;
75021;SDS011;63583;49.976;20.182;2022-10-15T07:57:44;23.00;;;12.43;;
75021;SDS011;63583;49.976;20.182;2022-10-15T08:00:10;19.85;;;11.82;;
75021;SDS011;63583;49.976;20.182;2022-10-15T08:02:36;20.33;;;12.32;;
75021;SDS011;63583;49.976;20.182;2022-10-15T08:05:02;22.55;;;13.25;;
75021;SDS011;63583;49.976;20.182;2022-10-15T08:07:28;21.58;;;12.82;;
75021;SDS011;63583;49.976;20.182;2022-10-15T08:09:53;20.98;;;12.85;;
75021;SDS011;63583;49.976;20.182;2022-10-15T08:12:19;21.63;;;14.57;;
75021;SDS011;63583;49.976;20.182;2022-10-15T08:14:45;19.73;;;12.90;;
75021;SDS011;63583;49.976;20.182;2022-10-15T08:17:11;21.02;;;12.73;;
75021;SDS011;63583;49.976;20.182;2022-10-15T08:19:37;23.17;;;12.73;;
75021;SDS011;63583;49.976;20.182;2022-10-15T08:22:03;23.05;;;12.85;;
75021;SDS011;63583;49.976;20.182;2022-10-15T08:24:29;22.08;;;12.70;;
75021;SDS011;63583;49.976;20.182;2022-10-15T08:26:56;23.05;;;12.90;;
75021;SDS011;63583;49.976;20.182;2022-10-15T08:29:22;21.30;;;13.00;;
75021;SDS011;63583;49.976;20.182;2022-10-15T08:31:49;21.40;;;13.52;;
75021;SDS011;63583;49.976;20.182;2022-10-15T08:34:15;22.05;;;13.35;;
75021;SDS011;63583;49.976;20.182;2022-10-15T08:36:41;22.55;;;13.55;;
75021;SDS011;63583;49.976;20.182;2022-10-15T08:39:07;22.75;;;12.75;;
75021;SDS011;63583;49.976;20.182;2022-10-15T08:45:18;19.13;;;11.82;;
75021;SDS011;63583;49.976;20.182;2022-10-15T08:48:04;20.83;;;12.07;;
75021;SDS011;63583;49.976;20.182;2022-10-15T08:53:48;20.88;;;13.00;;
75021;SDS011;63583;49.976;20.182;2022-10-15T08:56:26;16.88;;;11.63;;
75021;SDS011;63583;49.976;20.182;2022-10-15T08:58:56;16.42;;;12.23;;
75021;SDS011;63583;49.976;20.182;2022-10-15T09:07:13;15.07;;;10.75;;
75021;SDS011;63583;49.976;20.182;2022-10-15T09:09:51;16.10;;;11.13;;
75021;SDS011;63583;49.976;20.182;2022-10-15T09:12:35;15.70;;;10.15;;
75021;SDS011;63583;49.976;20.182;2022-10-15T09:15:08;20.10;;;11.85;;
75021;SDS011;63583;49.976;20.182;2022-10-15T09:17:38;16.35;;;10.77;;
75021;SDS011;63583;49.976;20.182;2022-10-15T09:20:05;14.82;;;10.48;;
75021;SDS011;63583;49.976;20.182;2022-10-15T09:22:37;15.52;;;10.82;;
75021;SDS011;63583;49.976;20.182;2022-10-15T09:25:13;15.32;;;10.23;;
75021;SDS011;63583;49.976;20.182;2022-10-15T09:27:40;15.77;;;10.70;;
75021;SDS011;63583;49.976;20.182;2022-10-15T09:35:53;17.20;;;11.20;;
75021;SDS011;63583;49.976;20.182;2022-10-15T09:38:47;17.20;;;11.85;;
75021;SDS011;63583;49.976;20.182;2022-10-15T09:44:14;15.25;;;9.85;;
75021;SDS011;63583;49.976;20.182;2022-10-15T09:46:45;15.85;;;10.05;;
75021;SDS011;63583;49.976;20.182;2022-10-15T09:49:40;16.67;;;10.55;;
75021;SDS011;63583;49.976;20.182;2022-10-15T09:55:21;15.40;;;10.35;;
75021;SDS011;63583;49.976;20.182;2022-10-15T10:02:15;14.93;;;10.38;;
75021;SDS011;63583;49.976;20.182;2022-10-15T10:10:59;16.33;;;10.18;;
75021;SDS011;63583;49.976;20.182;2022-10-15T10:13:32;15.30;;;10.32;;
75021;SDS011;63583;49.976;20.182;2022-10-15T10:16:04;14.93;;;10.25;;
75021;SDS011;63583;49.976;20.182;2022-10-15T10:18:34;16.00;;;10.02;;
75021;SDS011;63583;49.976;20.182;2022-10-15T10:21:03;13.50;;;9.55;;
75021;SDS011;63583;49.976;20.182;2022-10-15T10:23:50;12.27;;;9.45;;
75021;SDS011;63583;49.976;20.182;2022-10-15T10:26:16;13.75;;;10.10;;
75021;SDS011;63583;49.976;20.182;2022-10-15T10:31:16;14.18;;;9.48;;
75021;SDS011;63583;49.976;20.182;2022-10-15T10:33:46;12.90;;;9.68;;
75021;SDS011;63583;49.976;20.182;2022-10-15T10:36:23;13.10;;;9.77;;
75021;SDS011;63583;49.976;20.182;2022-10-15T10:39:02;14.25;;;9.77;;
75021;SDS011;63583;49.976;20.182;2022-10-15T10:41:50;13.65;;;9.73;;
75021;SDS011;63583;49.976;20.182;2022-10-15T10:47:25;14.82;;;9.55;;
75021;SDS011;63583;49.976;20.182;2022-10-15T10:49:48;13.32;;;8.65;;
75021;SDS011;63583;49.976;20.182;2022-10-15T10:54:53;15.15;;;9.02;;
75021;SDS011;63583;49.976;20.182;2022-10-15T11:00:19;14.05;;;8.70;;
75021;SDS011;63583;49.976;20.182;2022-10-15T11:02:49;12.93;;;7.93;;
75021;SDS011;63583;49.976;20.182;2022-10-15T11:05:19;14.75;;;9.60;;
75021;SDS011;63583;49.976;20.182;2022-10-15T11:10:58;13.20;;;8.20;;
75021;SDS011;63583;49.976;20.182;2022-10-15T11:16:26;13.77;;;8.52;;
75021;SDS011;63583;49.976;20.182;2022-10-15T11:24:50;11.85;;;7.70;;
75021;SDS011;63583;49.976;20.182;2022-10-15T11:30:30;13.70;;;7.68;;
75021;SDS011;63583;49.976;20.182;2022-10-15T11:41:27;23.33;;;14.23;;
75021;SDS011;63583;49.976;20.182;2022-10-15T11:57:38;14.55;;;8.60;;
75021;SDS011;63583;49.976;20.182;2022-10-15T12:02:59;9.90;;;7.03;;
75021;SDS011;63583;49.976;20.182;2022-10-15T12:07:59;11.18;;;7.03;;
75021;SDS011;63583;49.976;20.182;2022-10-15T12:10:35;11.25;;;6.60;;
75021;SDS011;63583;49.976;20.182;2022-10-15T12:15:54;14.68;;;7.95;;
75021;SDS011;63583;49.976;20.182;2022-10-15T12:20:52;11.27;;;7.18;;
75021;SDS011;63583;49.976;20.182;2022-10-15T12:26:01;12.52;;;6.65;;
75021;SDS011;63583;49.976;20.182;2022-10-15T12:31:14;10.48;;;6.80;;
75021;SDS011;63583;49.976;20.182;2022-10-15T12:33:46;12.20;;;7.35;;
75021;SDS011;63583;49.976;20.182;2022-10-15T12:39:00;10.43;;;6.65;;
75021;SDS011;63583;49.976;20.182;2022-10-15T12:44:04;10.18;;;7.20;;
75021;SDS011;63583;49.976;20.182;2022-10-15T12:46:39;13.32;;;8.05;;
75021;SDS011;63583;49.976;20.182;2022-10-15T12:51:58;11.75;;;8.68;;
75021;SDS011;63583;49.976;20.182;2022-10-15T12:54:35;16.13;;;9.80;;
75021;SDS011;63583;49.976;20.182;2022-10-15T13:00:00;26.23;;;19.02;;
75021;SDS011;63583;49.976;20.182;2022-10-15T13:02:46;17.60;;;10.07;;
75021;SDS011;63583;49.976;20.182;2022-10-15T13:05:23;16.27;;;9.13;;
75021;SDS011;63583;49.976;20.182;2022-10-15T13:07:51;16.40;;;10.38;;
75021;SDS011;63583;49.976;20.182;2022-10-15T13:10:20;49.25;;;22.55;;
75021;SDS011;63583;49.976;20.182;2022-10-15T13:13:12;93.55;;;38.38;;
75021;SDS011;63583;49.976;20.182;2022-10-15T13:15:41;107.45;;;53.05;;
75021;SDS011;63583;49.976;20.182;2022-10-15T13:18:14;42.85;;;22.60;;
75021;SDS011;63583;49.976;20.182;2022-10-15T13:20:41;32.15;;;17.35;;
75021;SDS011;63583;49.976;20.182;2022-10-15T13:23:17;16.27;;;8.93;;
75021;SDS011;63583;49.976;20.182;2022-10-15T13:25:43;18.13;;;10.38;;
75021;SDS011;63583;49.976;20.182;2022-10-15T13:30:54;18.80;;;10.70;;
75021;SDS011;63583;49.976;20.182;2022-10-15T13:33:20;12.73;;;7.78;;
75021;SDS011;63583;49.976;20.182;2022-10-15T13:35:47;8.40;;;6.10;;
75021;SDS011;63583;49.976;20.182;2022-10-15T13:38:20;9.40;;;6.30;;
75021;SDS011;63583;49.976;20.182;2022-10-15T13:40:52;9.82;;;6.47;;
75021;SDS011;63583;49.976;20.182;2022-10-15T13:43:25;43.80;;;25.02;;
75021;SDS011;63583;49.976;20.182;2022-10-15T13:45:59;18.15;;;11.45;;
75021;SDS011;63583;49.976;20.182;2022-10-15T13:48:27;17.23;;;11.13;;
75021;SDS011;63583;49.976;20.182;2022-10-15T13:51:01;14.68;;;7.68;;
75021;SDS011;63583;49.976;20.182;2022-10-15T13:53:30;15.77;;;8.93;;
75021;SDS011;63583;49.976;20.182;2022-10-15T13:56:18;12.70;;;7.43;;
75021;SDS011;63583;49.976;20.182;2022-10-15T13:58:48;13.82;;;7.93;;
75021;SDS011;63583;49.976;20.182;2022-10-15T14:01:22;10.63;;;6.90;;
75021;SDS011;63583;49.976;20.182;2022-10-15T14:04:16;10.77;;;6.88;;
75021;SDS011;63583;49.976;20.182;2022-10-15T14:06:58;11.02;;;6.32;;
75021;SDS011;63583;49.976;20.182;2022-10-15T14:09:28;11.52;;;6.63;;
75021;SDS011;63583;49.976;20.182;2022-10-15T14:12:03;12.00;;;6.28;;
75021;SDS011;63583;49.976;20.182;2022-10-15T14:14:33;13.43;;;8.30;;
75021;SDS011;63583;49.976;20.182;2022-10-15T14:17:07;12.25;;;7.03;;
75021;SDS011;63583;49.976;20.182;2022-10-15T14:19:53;59.40;;;25.92;;
75021;SDS011;63583;49.976;20.182;2022-10-15T14:22:23;12.65;;;7.38;;
75021;SDS011;63583;49.976;20.182;2022-10-15T14:24:52;11.63;;;6.63;;
75021;SDS011;63583;49.976;20.182;2022-10-15T14:27:20;14.80;;;7.20;;
75021;SDS011;63583;49.976;20.182;2022-10-15T14:29:48;13.82;;;7.50;;
75021;SDS011;63583;49.976;20.182;2022-10-15T14:32:29;14.32;;;7.57;;
75021;SDS011;63583;49.976;20.182;2022-10-15T14:34:56;16.08;;;8.13;;
75021;SDS011;63583;49.976;20.182;2022-10-15T14:42:33;14.30;;;7.72;;
75021;SDS011;63583;49.976;20.182;2022-10-15T14:48:10;16.02;;;8.95;;
75021;SDS011;63583;49.976;20.182;2022-10-15T14:50:41;20.30;;;9.05;;
75021;SDS011;63583;49.976;20.182;2022-10-15T14:53:09;13.85;;;8.70;;
75021;SDS011;63583;49.976;20.182;2022-10-15T14:55:42;12.90;;;8.25;;
75021;SDS011;63583;49.976;20.182;2022-10-15T14:58:15;18.02;;;9.38;;
75021;SDS011;63583;49.976;20.182;2022-10-15T15:00:44;14.85;;;8.60;;
75021;SDS011;63583;49.976;20.182;2022-10-15T15:03:18;19.63;;;10.90;;
75021;SDS011;63583;49.976;20.182;2022-10-15T15:05:49;20.20;;;12.85;;
75021;SDS011;63583;49.976;20.182;2022-10-15T15:08:19;18.35;;;10.18;;
75021;SDS011;63583;49.976;20.182;2022-10-15T15:10:46;18.17;;;9.70;;
75021;SDS011;63583;49.976;20.182;2022-10-15T15:13:20;14.00;;;8.68;;
75021;SDS011;63583;49.976;20.182;2022-10-15T15:15:47;19.17;;;10.85;;
75021;SDS011;63583;49.976;20.182;2022-10-15T15:18:16;17.70;;;9.35;;
75021;SDS011;63583;49.976;20.182;2022-10-15T15:20:42;18.60;;;10.23;;
75021;SDS011;63583;49.976;20.182;2022-10-15T15:23:17;16.90;;;10.10;;
75021;SDS011;63583;49.976;20.182;2022-10-15T15:25:45;15.77;;;9.68;;
75021;SDS011;63583;49.976;20.182;2022-10-15T15:28:12;16.60;;;10.05;;
75021;SDS011;63583;49.976;20.182;2022-10-15T15:30:46;17.35;;;11.07;;
75021;SDS011;63583;49.976;20.182;2022-10-15T15:35:55;30.65;;;16.27;;
75021;SDS011;63583;49.976;20.182;2022-10-15T15:38:24;37.85;;;19.85;;
75021;SDS011;63583;49.976;20.182;2022-10-15T15:41:11;34.10;;;18.23;;
75021;SDS011;63583;49.976;20.182;2022-10-15T15:43:38;58.78;;;30.80;;
75021;SDS011;63583;49.976;20.182;2022-10-15T15:46:04;31.02;;;17.55;;
75021;SDS011;63583;49.976;20.182;2022-10-15T15:48:30;32.95;;;18.25;;
75021;SDS011;63583;49.976;20.182;2022-10-15T15:50:57;25.98;;;14.13;;
75021;SDS011;63583;49.976;20.182;2022-10-15T15:53:27;26.48;;;15.10;;
75021;SDS011;63583;49.976;20.182;2022-10-15T15:55:52;26.65;;;15.85;;
75021;SDS011;63583;49.976;20.182;2022-10-15T15:58:18;25.92;;;15.23;;
75021;SDS011;63583;49.976;20.182;2022-10-15T16:00:44;31.52;;;19.02;;
75021;SDS011;63583;49.976;20.182;2022-10-15T16:03:13;38.42;;;20.42;;
75021;SDS011;63583;49.976;20.182;2022-10-15T16:05:39;35.58;;;18.23;;
75021;SDS011;63583;49.976;20.182;2022-10-15T16:08:06;20.63;;;12.05;;
75021;SDS011;63583;49.976;20.182;2022-10-15T16:10:34;21.02;;;12.77;;
75021;SDS011;63583;49.976;20.182;2022-10-15T16:13:00;26.48;;;13.52;;
75021;SDS011;63583;49.976;20.182;2022-10-15T16:15:26;23.63;;;12.40;;
75021;SDS011;63583;49.976;20.182;2022-10-15T16:17:52;21.08;;;10.82;;
75021;SDS011;63583;49.976;20.182;2022-10-15T16:20:18;28.35;;;14.88;;
75021;SDS011;63583;49.976;20.182;2022-10-15T16:22:47;30.65;;;16.33;;
75021;SDS011;63583;49.976;20.182;2022-10-15T16:25:14;26.15;;;15.10;;
75021;SDS011;63583;49.976;20.182;2022-10-15T16:27:40;26.55;;;14.80;;
75021;SDS011;63583;49.976;20.182;2022-10-15T16:30:06;24.52;;;12.23;;
75021;SDS011;63583;49.976;20.182;2022-10-15T16:32:32;26.67;;;13.52;;
75021;SDS011;63583;49.976;20.182;2022-10-15T16:34:57;32.33;;;13.73;;
75021;SDS011;63583;49.976;20.182;2022-10-15T16:37:23;29.17;;;13.93;;
75021;SDS011;63583;49.976;20.182;2022-10-15T16:39:49;37.05;;;16.27;;
75021;SDS011;63583;49.976;20.182;2022-10-15T16:42:15;43.90;;;20.80;;
75021;SDS011;63583;49.976;20.182;2022-10-15T16:44:40;40.35;;;19.77;;
75021;SDS011;63583;49.976;20.182;2022-10-15T16:47:06;32.15;;;15.13;;
75021;SDS011;63583;49.976;20.182;2022-10-15T16:49:32;27.35;;;13.40;;
75021;SDS011;63583;49.976;20.182;2022-10-15T16:51:58;19.35;;;10.40;;
75021;SDS011;63583;49.976;20.182;2022-10-15T16:54:23;15.35;;;10.25;;
75021;SDS011;63583;49.976;20.182;2022-10-15T16:56:50;12.90;;;7.22;;
75021;SDS011;63583;49.976;20.182;2022-10-15T16:59:17;13.20;;;7.88;;